sensor_id;sensor_type;location;lat;lon;timestamp;P1;durP1;ratioP1;P2;durP2;ratioP2
44304;SDS011;30019;50.576;8.568;2023-06-10T00:02:28;66.35;;;61.20;;
44304;SDS011;30019;50.576;8.568;2023-06-10T00:04:53;57.10;;;52.60;;
44304;SDS011;30019;50.576;8.568;2023-06-10T00:07:19;65.20;;;60.22;;
44304;SDS011;30019;50.576;8.568;2023-06-10T00:09:44;55.90;;;51.37;;
44304;SDS011;30019;50.576;8.568;2023-06-10T00:12:10;60.58;;;55.33;;
44304;SDS011;30019;50.576;8.568;2023-06-10T00:14:37;63.13;;;57.78;;
44304;SDS011;30019;50.576;8.568;2023-06-10T00:17:03;59.97;;;55.15;;
44304;SDS011;30019;50.576;8.568;2023-06-10T00:19:29;56.88;;;52.10;;
44304;SDS011;30019;50.576;8.568;2023-06-10T00:21:58;60.28;;;55.15;;
44304;SDS011;30019;50.576;8.568;2023-06-10T00:24:24;71.97;;;66.28;;
44304;SDS011;30019;50.576;8.568;2023-06-10T00:26:49;75.85;;;69.25;;
44304;SDS011;30019;50.576;8.568;2023-06-10T00:29:15;63.67;;;58.70;;
44304;SDS011;30019;50.576;8.568;2023-06-10T00:31:41;60.55;;;55.88;;
44304;SDS011;30019;50.576;8.568;2023-06-10T00:34:07;63.72;;;58.60;;
44304;SDS011;30019;50.576;8.568;2023-06-10T00:36:33;57.33;;;52.40;;
44304;SDS011;30019;50.576;8.568;2023-06-10T00:38:59;57.45;;;52.22;;
44304;SDS011;30019;50.576;8.568;2023-06-10T00:41:24;65.62;;;60.17;;
44304;SDS011;30019;50.576;8.568;2023-06-10T00:43:53;65.43;;;60.00;;
44304;SDS011;30019;50.576;8.568;2023-06-10T00:46:19;64.55;;;59.28;;
44304;SDS011;30019;50.576;8.568;2023-06-10T00:48:46;67.30;;;61.42;;
44304;SDS011;30019;50.576;8.568;2023-06-10T00:51:11;70.68;;;65.00;;
44304;SDS011;30019;50.576;8.568;2023-06-10T00:53:39;78.53;;;72.07;;
44304;SDS011;30019;50.576;8.568;2023-06-10T00:56:05;80.20;;;73.60;;
44304;SDS011;30019;50.576;8.568;2023-06-10T00:58:31;80.78;;;74.22;;
44304;SDS011;30019;50.576;8.568;2023-06-10T01:00:57;81.37;;;74.12;;
44304;SDS011;30019;50.576;8.568;2023-06-10T01:03:23;99.00;;;91.12;;
44304;SDS011;30019;50.576;8.568;2023-06-10T01:05:50;188.15;;;174.30;;
44304;SDS011;30019;50.576;8.568;2023-06-10T01:09:25;484.20;;;450.10;;
44304;SDS011;30019;50.576;8.568;2023-06-10T01:11:36;468.87;;;433.48;;
44304;SDS011;30019;50.576;8.568;2023-06-10T01:14:25;653.62;;;604.95;;
44304;SDS011;30019;50.576;8.568;2023-06-10T01:16:52;693.33;;;638.80;;
44304;SDS011;30019;50.576;8.568;2023-06-10T01:19:18;875.03;;;795.83;;
44304;SDS011;30019;50.576;8.568;2023-06-10T01:21:43;928.20;;;843.05;;
44304;SDS011;30019;50.576;8.568;2023-06-10T01:24:13;948.12;;;862.40;;
44304;SDS011;30019;50.576;8.568;2023-06-10T01:26:44;421.65;;;384.52;;
44304;SDS011;30019;50.576;8.568;2023-06-10T01:34:50;531.65;;;495.30;;
44304;SDS011;30019;50.576;8.568;2023-06-10T01:37:17;566.12;;;527.35;;
44304;SDS011;30019;50.576;8.568;2023-06-10T01:39:45;233.85;;;218.63;;
44304;SDS011;30019;50.576;8.568;2023-06-10T01:42:12;127.25;;;118.53;;
44304;SDS011;30019;50.576;8.568;2023-06-10T01:44:39;66.30;;;61.47;;
44304;SDS011;30019;50.576;8.568;2023-06-10T01:47:05;55.38;;;51.28;;
44304;SDS011;30019;50.576;8.568;2023-06-10T01:49:30;54.30;;;50.28;;
44304;SDS011;30019;50.576;8.568;2023-06-10T01:51:56;65.07;;;60.30;;
44304;SDS011;30019;50.576;8.568;2023-06-10T01:54:21;57.58;;;53.28;;
44304;SDS011;30019;50.576;8.568;2023-06-10T01:56:47;40.75;;;37.65;;
44304;SDS011;30019;50.576;8.568;2023-06-10T01:59:12;46.42;;;42.90;;
44304;SDS011;30019;50.576;8.568;2023-06-10T02:01:38;48.97;;;44.72;;
44304;SDS011;30019;50.576;8.568;2023-06-10T02:04:03;38.67;;;35.30;;
44304;SDS011;30019;50.576;8.568;2023-06-10T02:06:29;42.33;;;38.75;;
44304;SDS011;30019;50.576;8.568;2023-06-10T02:08:55;39.70;;;36.47;;
44304;SDS011;30019;50.576;8.568;2023-06-10T02:11:20;41.85;;;38.42;;
44304;SDS011;30019;50.576;8.568;2023-06-10T02:13:46;40.45;;;37.28;;
44304;SDS011;30019;50.576;8.568;2023-06-10T02:16:12;47.78;;;44.22;;
44304;SDS011;30019;50.576;8.568;2023-06-10T02:18:39;46.92;;;43.35;;
44304;SDS011;30019;50.576;8.568;2023-06-10T02:21:08;45.15;;;41.25;;
44304;SDS011;30019;50.576;8.568;2023-06-10T02:23:33;47.50;;;43.75;;
44304;SDS011;30019;50.576;8.568;2023-06-10T02:25:59;49.35;;;45.65;;
44304;SDS011;30019;50.576;8.568;2023-06-10T02:28:25;44.13;;;40.80;;
44304;SDS011;30019;50.576;8.568;2023-06-10T02:30:51;38.38;;;35.28;;
44304;SDS011;30019;50.576;8.568;2023-06-10T02:33:16;42.83;;;39.08;;
44304;SDS011;30019;50.576;8.568;2023-06-10T02:35:42;43.05;;;39.90;;
44304;SDS011;30019;50.576;8.568;2023-06-10T02:38:08;47.17;;;43.38;;
44304;SDS011;30019;50.576;8.568;2023-06-10T02:40:33;42.38;;;39.17;;
44304;SDS011;30019;50.576;8.568;2023-06-10T02:42:59;40.78;;;37.60;;
44304;SDS011;30019;50.576;8.568;2023-06-10T02:45:25;49.67;;;45.85;;
44304;SDS011;30019;50.576;8.568;2023-06-10T02:47:50;44.22;;;40.83;;
44304;SDS011;30019;50.576;8.568;2023-06-10T02:50:16;45.10;;;41.05;;
44304;SDS011;30019;50.576;8.568;2023-06-10T02:52:41;41.13;;;37.72;;
44304;SDS011;30019;50.576;8.568;2023-06-10T02:55:07;43.28;;;39.42;;
44304;SDS011;30019;50.576;8.568;2023-06-10T02:57:32;42.30;;;38.72;;
44304;SDS011;30019;50.576;8.568;2023-06-10T02:59:58;43.30;;;39.90;;
44304;SDS011;30019;50.576;8.568;2023-06-10T03:02:24;48.33;;;44.60;;
44304;SDS011;30019;50.576;8.568;2023-06-10T03:04:54;50.17;;;46.47;;
44304;SDS011;30019;50.576;8.568;2023-06-10T03:07:20;44.20;;;40.55;;
44304;SDS011;30019;50.576;8.568;2023-06-10T03:09:46;49.35;;;45.50;;
44304;SDS011;30019;50.576;8.568;2023-06-10T03:12:11;45.30;;;41.67;;
44304;SDS011;30019;50.576;8.568;2023-06-10T03:14:37;47.80;;;44.10;;
44304;SDS011;30019;50.576;8.568;2023-06-10T03:17:04;49.13;;;45.22;;
44304;SDS011;30019;50.576;8.568;2023-06-10T03:19:30;53.63;;;49.58;;
44304;SDS011;30019;50.576;8.568;2023-06-10T03:22:08;48.83;;;44.97;;
44304;SDS011;30019;50.576;8.568;2023-06-10T03:24:36;48.25;;;44.33;;
44304;SDS011;30019;50.576;8.568;2023-06-10T03:27:04;61.55;;;56.95;;
44304;SDS011;30019;50.576;8.568;2023-06-10T03:29:34;51.03;;;47.05;;
44304;SDS011;30019;50.576;8.568;2023-06-10T03:32:00;49.95;;;45.72;;
44304;SDS011;30019;50.576;8.568;2023-06-10T03:34:26;46.42;;;42.70;;
44304;SDS011;30019;50.576;8.568;2023-06-10T03:36:52;42.13;;;38.53;;
44304;SDS011;30019;50.576;8.568;2023-06-10T03:39:17;41.25;;;38.10;;
44304;SDS011;30019;50.576;8.568;2023-06-10T03:41:43;51.77;;;47.53;;
44304;SDS011;30019;50.576;8.568;2023-06-10T03:44:08;67.50;;;62.47;;
44304;SDS011;30019;50.576;8.568;2023-06-10T03:46:34;46.47;;;42.80;;
44304;SDS011;30019;50.576;8.568;2023-06-10T03:49:00;47.03;;;43.13;;
44304;SDS011;30019;50.576;8.568;2023-06-10T03:51:26;47.20;;;43.13;;
44304;SDS011;30019;50.576;8.568;2023-06-10T03:53:52;47.33;;;43.63;;
44304;SDS011;30019;50.576;8.568;2023-06-10T03:56:17;45.00;;;41.25;;
44304;SDS011;30019;50.576;8.568;2023-06-10T03:58:43;45.38;;;41.78;;
44304;SDS011;30019;50.576;8.568;2023-06-10T04:01:09;51.00;;;47.08;;
44304;SDS011;30019;50.576;8.568;2023-06-10T04:03:35;48.33;;;43.95;;
44304;SDS011;30019;50.576;8.568;2023-06-10T04:06:01;54.13;;;50.15;;
44304;SDS011;30019;50.576;8.568;2023-06-10T04:08:27;53.38;;;49.47;;
44304;SDS011;30019;50.576;8.568;2023-06-10T04:10:53;40.05;;;36.75;;
44304;SDS011;30019;50.576;8.568;2023-06-10T04:13:18;40.80;;;37.55;;
44304;SDS011;30019;50.576;8.568;2023-06-10T04:15:44;44.40;;;40.58;;
44304;SDS011;30019;50.576;8.568;2023-06-10T04:18:10;51.65;;;47.67;;
44304;SDS011;30019;50.576;8.568;2023-06-10T04:20:36;41.45;;;38.30;;
44304;SDS011;30019;50.576;8.568;2023-06-10T04:23:01;45.33;;;41.58;;
44304;SDS011;30019;50.576;8.568;2023-06-10T04:25:27;43.90;;;40.47;;
44304;SDS011;30019;50.576;8.568;2023-06-10T04:27:53;49.33;;;45.72;;
44304;SDS011;30019;50.576;8.568;2023-06-10T04:30:19;43.83;;;40.30;;
44304;SDS011;30019;50.576;8.568;2023-06-10T04:32:45;41.70;;;38.00;;
44304;SDS011;30019;50.576;8.568;2023-06-10T04:35:12;43.40;;;40.08;;
44304;SDS011;30019;50.576;8.568;2023-06-10T04:37:38;44.10;;;40.60;;
44304;SDS011;30019;50.576;8.568;2023-06-10T04:40:04;41.60;;;38.50;;
44304;SDS011;30019;50.576;8.568;2023-06-10T04:42:31;37.08;;;33.83;;
44304;SDS011;30019;50.576;8.568;2023-06-10T04:44:56;40.83;;;37.80;;
44304;SDS011;30019;50.576;8.568;2023-06-10T04:47:22;40.78;;;37.58;;
44304;SDS011;30019;50.576;8.568;2023-06-10T04:49:48;34.72;;;32.03;;
44304;SDS011;30019;50.576;8.568;2023-06-10T04:52:13;54.70;;;50.83;;
44304;SDS011;30019;50.576;8.568;2023-06-10T04:54:39;35.58;;;33.00;;
44304;SDS011;30019;50.576;8.568;2023-06-10T04:57:05;39.83;;;36.67;;
44304;SDS011;30019;50.576;8.568;2023-06-10T04:59:32;42.85;;;39.63;;
44304;SDS011;30019;50.576;8.568;2023-06-10T05:01:58;46.28;;;42.88;;
44304;SDS011;30019;50.576;8.568;2023-06-10T05:04:24;42.72;;;39.35;;
44304;SDS011;30019;50.576;8.568;2023-06-10T05:06:49;42.97;;;39.75;;
44304;SDS011;30019;50.576;8.568;2023-06-10T05:09:15;39.40;;;36.15;;
44304;SDS011;30019;50.576;8.568;2023-06-10T05:11:40;47.65;;;43.85;;
44304;SDS011;30019;50.576;8.568;2023-06-10T05:14:06;37.53;;;34.72;;
44304;SDS011;30019;50.576;8.568;2023-06-10T05:16:32;42.08;;;38.65;;
44304;SDS011;30019;50.576;8.568;2023-06-10T05:18:57;37.42;;;34.58;;
44304;SDS011;30019;50.576;8.568;2023-06-10T05:21:23;35.83;;;33.35;;
44304;SDS011;30019;50.576;8.568;2023-06-10T05:23:48;33.13;;;30.55;;
44304;SDS011;30019;50.576;8.568;2023-06-10T05:26:14;52.08;;;48.22;;
44304;SDS011;30019;50.576;8.568;2023-06-10T05:28:40;64.55;;;60.22;;
44304;SDS011;30019;50.576;8.568;2023-06-10T05:31:06;95.90;;;89.37;;
44304;SDS011;30019;50.576;8.568;2023-06-10T05:33:32;97.32;;;90.45;;
44304;SDS011;30019;50.576;8.568;2023-06-10T05:35:57;154.03;;;143.77;;
44304;SDS011;30019;50.576;8.568;2023-06-10T05:38:23;810.03;;;732.80;;
44304;SDS011;30019;50.576;8.568;2023-06-10T05:40:48;759.60;;;684.97;;
44304;SDS011;30019;50.576;8.568;2023-06-10T05:43:14;749.20;;;678.92;;
44304;SDS011;30019;50.576;8.568;2023-06-10T05:45:41;414.70;;;382.55;;
44304;SDS011;30019;50.576;8.568;2023-06-10T05:48:07;499.90;;;459.60;;
44304;SDS011;30019;50.576;8.568;2023-06-10T05:50:33;181.60;;;166.15;;
44304;SDS011;30019;50.576;8.568;2023-06-10T05:53:03;209.52;;;194.18;;
44304;SDS011;30019;50.576;8.568;2023-06-10T05:55:28;715.85;;;656.28;;
44304;SDS011;30019;50.576;8.568;2023-06-10T05:58:00;421.48;;;388.35;;
44304;SDS011;30019;50.576;8.568;2023-06-10T06:00:26;655.13;;;602.33;;
44304;SDS011;30019;50.576;8.568;2023-06-10T06:02:52;101.43;;;92.70;;
44304;SDS011;30019;50.576;8.568;2023-06-10T06:05:19;76.80;;;69.43;;
44304;SDS011;30019;50.576;8.568;2023-06-10T06:07:44;73.28;;;67.25;;
44304;SDS011;30019;50.576;8.568;2023-06-10T06:10:10;66.70;;;60.92;;
44304;SDS011;30019;50.576;8.568;2023-06-10T06:12:35;51.60;;;47.17;;
44304;SDS011;30019;50.576;8.568;2023-06-10T06:15:01;85.35;;;77.80;;
44304;SDS011;30019;50.576;8.568;2023-06-10T06:17:28;57.58;;;51.55;;
44304;SDS011;30019;50.576;8.568;2023-06-10T06:19:53;58.33;;;53.17;;
44304;SDS011;30019;50.576;8.568;2023-06-10T06:22:19;51.92;;;47.17;;
44304;SDS011;30019;50.576;8.568;2023-06-10T06:24:47;45.80;;;40.47;;
44304;SDS011;30019;50.576;8.568;2023-06-10T06:27:12;46.25;;;41.85;;
44304;SDS011;30019;50.576;8.568;2023-06-10T06:29:38;53.60;;;49.13;;
44304;SDS011;30019;50.576;8.568;2023-06-10T06:32:04;44.92;;;40.72;;
44304;SDS011;30019;50.576;8.568;2023-06-10T06:34:29;47.62;;;43.47;;
44304;SDS011;30019;50.576;8.568;2023-06-10T06:36:55;42.85;;;39.00;;
44304;SDS011;30019;50.576;8.568;2023-06-10T06:39:21;41.95;;;37.42;;
44304;SDS011;30019;50.576;8.568;2023-06-10T06:41:46;44.95;;;40.88;;
44304;SDS011;30019;50.576;8.568;2023-06-10T06:44:12;45.85;;;41.60;;
44304;SDS011;30019;50.576;8.568;2023-06-10T06:46:37;44.30;;;39.78;;
44304;SDS011;30019;50.576;8.568;2023-06-10T06:49:03;39.03;;;33.65;;
44304;SDS011;30019;50.576;8.568;2023-06-10T06:51:28;39.83;;;35.45;;
44304;SDS011;30019;50.576;8.568;2023-06-10T06:53:54;42.65;;;38.50;;
44304;SDS011;30019;50.576;8.568;2023-06-10T06:56:23;41.77;;;37.57;;
44304;SDS011;30019;50.576;8.568;2023-06-10T06:58:49;39.22;;;35.15;;
44304;SDS011;30019;50.576;8.568;2023-06-10T07:01:14;39.40;;;35.38;;
44304;SDS011;30019;50.576;8.568;2023-06-10T07:03:40;45.42;;;40.83;;
44304;SDS011;30019;50.576;8.568;2023-06-10T07:06:06;39.65;;;35.80;;
44304;SDS011;30019;50.576;8.568;2023-06-10T07:08:32;43.58;;;36.78;;
44304;SDS011;30019;50.576;8.568;2023-06-10T07:10:57;37.38;;;32.83;;
44304;SDS011;30019;50.576;8.568;2023-06-10T07:13:23;39.15;;;35.05;;
44304;SDS011;30019;50.576;8.568;2023-06-10T07:15:48;40.72;;;36.20;;
44304;SDS011;30019;50.576;8.568;2023-06-10T07:18:15;39.53;;;34.72;;
44304;SDS011;30019;50.576;8.568;2023-06-10T07:20:41;39.75;;;32.28;;
44304;SDS011;30019;50.576;8.568;2023-06-10T07:23:07;40.80;;;36.75;;
44304;SDS011;30019;50.576;8.568;2023-06-10T07:25:32;44.30;;;40.10;;
44304;SDS011;30019;50.576;8.568;2023-06-10T07:27:58;33.65;;;30.65;;
44304;SDS011;30019;50.576;8.568;2023-06-10T07:30:23;34.45;;;31.87;;
44304;SDS011;30019;50.576;8.568;2023-06-10T07:32:49;31.52;;;28.73;;
44304;SDS011;30019;50.576;8.568;2023-06-10T07:35:16;26.90;;;24.98;;
44304;SDS011;30019;50.576;8.568;2023-06-10T07:37:42;40.70;;;36.40;;
44304;SDS011;30019;50.576;8.568;2023-06-10T07:40:08;33.33;;;30.08;;
44304;SDS011;30019;50.576;8.568;2023-06-10T07:42:34;31.83;;;29.63;;
44304;SDS011;30019;50.576;8.568;2023-06-10T07:45:01;36.58;;;31.98;;
44304;SDS011;30019;50.576;8.568;2023-06-10T07:47:27;27.62;;;25.52;;
44304;SDS011;30019;50.576;8.568;2023-06-10T07:49:53;30.33;;;27.60;;
44304;SDS011;30019;50.576;8.568;2023-06-10T07:52:18;30.27;;;28.10;;
44304;SDS011;30019;50.576;8.568;2023-06-10T07:54:44;30.52;;;28.15;;
44304;SDS011;30019;50.576;8.568;2023-06-10T07:57:09;33.00;;;30.25;;
44304;SDS011;30019;50.576;8.568;2023-06-10T07:59:35;37.38;;;34.65;;
44304;SDS011;30019;50.576;8.568;2023-06-10T08:02:00;35.92;;;33.17;;
44304;SDS011;30019;50.576;8.568;2023-06-10T08:04:38;28.77;;;26.02;;
44304;SDS011;30019;50.576;8.568;2023-06-10T08:07:04;28.83;;;26.75;;
44304;SDS011;30019;50.576;8.568;2023-06-10T08:09:30;26.60;;;23.87;;
44304;SDS011;30019;50.576;8.568;2023-06-10T08:11:55;27.83;;;25.58;;
44304;SDS011;30019;50.576;8.568;2023-06-10T08:14:21;29.02;;;26.55;;
44304;SDS011;30019;50.576;8.568;2023-06-10T08:16:47;26.50;;;24.50;;
44304;SDS011;30019;50.576;8.568;2023-06-10T08:19:12;28.75;;;26.48;;
44304;SDS011;30019;50.576;8.568;2023-06-10T08:21:38;25.98;;;24.23;;
44304;SDS011;30019;50.576;8.568;2023-06-10T08:24:05;36.75;;;27.17;;
44304;SDS011;30019;50.576;8.568;2023-06-10T08:26:31;26.67;;;24.73;;
44304;SDS011;30019;50.576;8.568;2023-06-10T08:28:57;29.58;;;27.45;;
44304;SDS011;30019;50.576;8.568;2023-06-10T08:31:23;27.03;;;24.93;;
44304;SDS011;30019;50.576;8.568;2023-06-10T08:33:48;26.20;;;24.50;;
44304;SDS011;30019;50.576;8.568;2023-06-10T08:36:15;35.72;;;33.05;;
44304;SDS011;30019;50.576;8.568;2023-06-10T08:38:40;29.27;;;27.02;;
44304;SDS011;30019;50.576;8.568;2023-06-10T08:41:06;24.87;;;22.98;;
44304;SDS011;30019;50.576;8.568;2023-06-10T08:50:59;28.90;;;26.20;;
44304;SDS011;30019;50.576;8.568;2023-06-10T08:53:28;26.10;;;23.92;;
44304;SDS011;30019;50.576;8.568;2023-06-10T08:55:57;25.07;;;22.90;;
44304;SDS011;30019;50.576;8.568;2023-06-10T08:58:25;26.05;;;23.98;;
44304;SDS011;30019;50.576;8.568;2023-06-10T09:00:53;27.23;;;25.13;;
44304;SDS011;30019;50.576;8.568;2023-06-10T09:03:18;27.27;;;25.37;;
44304;SDS011;30019;50.576;8.568;2023-06-10T09:05:45;27.95;;;25.95;;
44304;SDS011;30019;50.576;8.568;2023-06-10T09:08:10;27.67;;;25.58;;
44304;SDS011;30019;50.576;8.568;2023-06-10T09:10:36;28.20;;;25.70;;
44304;SDS011;30019;50.576;8.568;2023-06-10T09:13:02;24.50;;;22.80;;
44304;SDS011;30019;50.576;8.568;2023-06-10T09:15:28;28.98;;;26.55;;
44304;SDS011;30019;50.576;8.568;2023-06-10T09:17:53;30.77;;;23.73;;
44304;SDS011;30019;50.576;8.568;2023-06-10T09:20:19;40.28;;;35.47;;
44304;SDS011;30019;50.576;8.568;2023-06-10T09:22:45;61.72;;;35.47;;
44304;SDS011;30019;50.576;8.568;2023-06-10T09:25:11;33.08;;;30.73;;
44304;SDS011;30019;50.576;8.568;2023-06-10T09:30:32;40.22;;;24.35;;
44304;SDS011;30019;50.576;8.568;2023-06-10T09:32:59;28.08;;;25.80;;
44304;SDS011;30019;50.576;8.568;2023-06-10T09:40:26;27.05;;;24.67;;
44304;SDS011;30019;50.576;8.568;2023-06-10T09:42:53;43.05;;;34.55;;
44304;SDS011;30019;50.576;8.568;2023-06-10T09:45:30;58.78;;;37.33;;
44304;SDS011;30019;50.576;8.568;2023-06-10T09:47:57;28.85;;;26.65;;
44304;SDS011;30019;50.576;8.568;2023-06-10T09:50:23;49.35;;;44.42;;
44304;SDS011;30019;50.576;8.568;2023-06-10T09:52:49;24.60;;;22.80;;
44304;SDS011;30019;50.576;8.568;2023-06-10T10:00:09;48.42;;;36.45;;
44304;SDS011;30019;50.576;8.568;2023-06-10T10:02:46;26.40;;;24.60;;
44304;SDS011;30019;50.576;8.568;2023-06-10T10:05:13;48.03;;;29.03;;
44304;SDS011;30019;50.576;8.568;2023-06-10T10:07:40;26.25;;;24.02;;
44304;SDS011;30019;50.576;8.568;2023-06-10T10:10:06;36.92;;;24.60;;
44304;SDS011;30019;50.576;8.568;2023-06-10T10:12:33;27.40;;;24.65;;
44304;SDS011;30019;50.576;8.568;2023-06-10T10:15:00;27.15;;;23.20;;
44304;SDS011;30019;50.576;8.568;2023-06-10T10:17:27;36.65;;;25.25;;
44304;SDS011;30019;50.576;8.568;2023-06-10T10:22:26;23.05;;;21.40;;
44304;SDS011;30019;50.576;8.568;2023-06-10T10:29:53;25.35;;;22.13;;
44304;SDS011;30019;50.576;8.568;2023-06-10T10:32:25;22.85;;;21.25;;
44304;SDS011;30019;50.576;8.568;2023-06-10T10:39:57;21.45;;;19.70;;
44304;SDS011;30019;50.576;8.568;2023-06-10T10:42:24;27.30;;;24.85;;
44304;SDS011;30019;50.576;8.568;2023-06-10T10:44:51;21.20;;;19.80;;
44304;SDS011;30019;50.576;8.568;2023-06-10T10:47:17;23.60;;;21.80;;
44304;SDS011;30019;50.576;8.568;2023-06-10T11:12:25;24.40;;;22.50;;
44304;SDS011;30019;50.576;8.568;2023-06-10T11:14:54;26.77;;;24.90;;
44304;SDS011;30019;50.576;8.568;2023-06-10T11:17:21;30.40;;;28.40;;
44304;SDS011;30019;50.576;8.568;2023-06-10T11:19:47;26.15;;;24.27;;
44304;SDS011;30019;50.576;8.568;2023-06-10T11:22:18;24.83;;;22.73;;
44304;SDS011;30019;50.576;8.568;2023-06-10T11:32:33;32.87;;;30.47;;
44304;SDS011;30019;50.576;8.568;2023-06-10T11:34:59;21.83;;;20.33;;
44304;SDS011;30019;50.576;8.568;2023-06-10T11:37:28;22.50;;;20.70;;
44304;SDS011;30019;50.576;8.568;2023-06-10T11:39:54;22.50;;;20.90;;
44304;SDS011;30019;50.576;8.568;2023-06-10T11:42:21;22.83;;;21.08;;
44304;SDS011;30019;50.576;8.568;2023-06-10T11:47:16;22.37;;;20.90;;
44304;SDS011;30019;50.576;8.568;2023-06-10T11:52:08;22.30;;;20.40;;
44304;SDS011;30019;50.576;8.568;2023-06-10T11:54:33;21.55;;;20.10;;
44304;SDS011;30019;50.576;8.568;2023-06-10T11:56:59;20.93;;;19.27;;
44304;SDS011;30019;50.576;8.568;2023-06-10T12:01:54;21.16;;;19.84;;
44304;SDS011;30019;50.576;8.568;2023-06-10T12:04:20;22.90;;;20.85;;
44304;SDS011;30019;50.576;8.568;2023-06-10T12:06:47;23.33;;;21.60;;
44304;SDS011;30019;50.576;8.568;2023-06-10T12:09:27;21.27;;;19.48;;
44304;SDS011;30019;50.576;8.568;2023-06-10T12:11:57;20.85;;;19.15;;
44304;SDS011;30019;50.576;8.568;2023-06-10T12:19:38;22.43;;;20.70;;
44304;SDS011;30019;50.576;8.568;2023-06-10T12:49:02;20.00;;;18.10;;
44304;SDS011;30019;50.576;8.568;2023-06-10T12:51:27;22.13;;;20.00;;
44304;SDS011;30019;50.576;8.568;2023-06-10T12:53:53;23.33;;;21.30;;
44304;SDS011;30019;50.576;8.568;2023-06-10T13:03:35;25.25;;;23.33;;
44304;SDS011;30019;50.576;8.568;2023-06-10T13:06:01;20.95;;;19.30;;
44304;SDS011;30019;50.576;8.568;2023-06-10T13:13:17;22.00;;;20.20;;
44304;SDS011;30019;50.576;8.568;2023-06-10T13:20:34;21.30;;;19.60;;
44304;SDS011;30019;50.576;8.568;2023-06-10T13:49:42;24.80;;;23.10;;
44304;SDS011;30019;50.576;8.568;2023-06-10T13:52:08;138.00;;;77.90;;
44304;SDS011;30019;50.576;8.568;2023-06-10T14:09:17;54.40;;;50.10;;
44304;SDS011;30019;50.576;8.568;2023-06-10T14:19:00;23.87;;;22.27;;
44304;SDS011;30019;50.576;8.568;2023-06-10T14:23:51;101.00;;;62.10;;
44304;SDS011;30019;50.576;8.568;2023-06-10T14:48:10;225.70;;;112.70;;
44304;SDS011;30019;50.576;8.568;2023-06-10T14:50:36;20.77;;;18.80;;
44304;SDS011;30019;50.576;8.568;2023-06-10T14:57:53;19.85;;;18.33;;
44304;SDS011;30019;50.576;8.568;2023-06-10T15:00:20;21.25;;;19.80;;
44304;SDS011;30019;50.576;8.568;2023-06-10T15:02:49;19.70;;;18.40;;
44304;SDS011;30019;50.576;8.568;2023-06-10T15:29:31;20.10;;;18.70;;
44304;SDS011;30019;50.576;8.568;2023-06-10T15:51:22;21.60;;;20.10;;
44304;SDS011;30019;50.576;8.568;2023-06-10T15:53:48;21.05;;;19.30;;
44304;SDS011;30019;50.576;8.568;2023-06-10T15:56:13;19.42;;;18.12;;
44304;SDS011;30019;50.576;8.568;2023-06-10T15:58:40;24.50;;;22.27;;
44304;SDS011;30019;50.576;8.568;2023-06-10T16:01:05;22.62;;;20.83;;
44304;SDS011;30019;50.576;8.568;2023-06-10T16:03:32;21.67;;;20.17;;
44304;SDS011;30019;50.576;8.568;2023-06-10T16:05:57;22.50;;;21.00;;
44304;SDS011;30019;50.576;8.568;2023-06-10T16:08:23;23.35;;;21.85;;
44304;SDS011;30019;50.576;8.568;2023-06-10T16:13:14;23.10;;;21.50;;
44304;SDS011;30019;50.576;8.568;2023-06-10T16:15:39;21.80;;;20.15;;
44304;SDS011;30019;50.576;8.568;2023-06-10T16:18:05;22.75;;;21.20;;
44304;SDS011;30019;50.576;8.568;2023-06-10T16:20:30;20.08;;;18.62;;
44304;SDS011;30019;50.576;8.568;2023-06-10T16:22:58;23.58;;;21.87;;
44304;SDS011;30019;50.576;8.568;2023-06-10T16:25:24;22.52;;;20.75;;
44304;SDS011;30019;50.576;8.568;2023-06-10T16:27:49;21.97;;;20.40;;
44304;SDS011;30019;50.576;8.568;2023-06-10T16:30:15;21.52;;;19.92;;
44304;SDS011;30019;50.576;8.568;2023-06-10T16:32:40;23.90;;;22.30;;
44304;SDS011;30019;50.576;8.568;2023-06-10T16:35:06;23.38;;;21.55;;
44304;SDS011;30019;50.576;8.568;2023-06-10T16:37:32;21.27;;;19.98;;
44304;SDS011;30019;50.576;8.568;2023-06-10T16:39:57;31.37;;;29.23;;
44304;SDS011;30019;50.576;8.568;2023-06-10T16:42:23;22.17;;;20.67;;
44304;SDS011;30019;50.576;8.568;2023-06-10T16:44:48;27.30;;;25.35;;
44304;SDS011;30019;50.576;8.568;2023-06-10T16:47:14;28.10;;;25.48;;
44304;SDS011;30019;50.576;8.568;2023-06-10T16:49:39;41.95;;;38.33;;
44304;SDS011;30019;50.576;8.568;2023-06-10T16:52:05;21.67;;;20.37;;
44304;SDS011;30019;50.576;8.568;2023-06-10T16:54:31;26.65;;;24.63;;
44304;SDS011;30019;50.576;8.568;2023-06-10T16:56:56;23.90;;;21.95;;
44304;SDS011;30019;50.576;8.568;2023-06-10T16:59:22;25.10;;;23.30;;
44304;SDS011;30019;50.576;8.568;2023-06-10T17:01:47;21.42;;;19.80;;
44304;SDS011;30019;50.576;8.568;2023-06-10T17:04:13;21.67;;;20.07;;
44304;SDS011;30019;50.576;8.568;2023-06-10T17:06:38;26.45;;;24.42;;
44304;SDS011;30019;50.576;8.568;2023-06-10T17:09:04;36.17;;;33.83;;
44304;SDS011;30019;50.576;8.568;2023-06-10T17:11:30;43.70;;;40.88;;
44304;SDS011;30019;50.576;8.568;2023-06-10T17:13:56;28.08;;;26.23;;
44304;SDS011;30019;50.576;8.568;2023-06-10T17:16:22;23.70;;;22.00;;
44304;SDS011;30019;50.576;8.568;2023-06-10T17:18:47;23.27;;;21.05;;
44304;SDS011;30019;50.576;8.568;2023-06-10T17:21:13;23.52;;;21.77;;
44304;SDS011;30019;50.576;8.568;2023-06-10T17:23:38;27.17;;;24.97;;
44304;SDS011;30019;50.576;8.568;2023-06-10T17:26:04;22.55;;;21.00;;
44304;SDS011;30019;50.576;8.568;2023-06-10T17:28:29;23.10;;;21.37;;
44304;SDS011;30019;50.576;8.568;2023-06-10T17:30:55;21.83;;;20.25;;
44304;SDS011;30019;50.576;8.568;2023-06-10T17:33:20;24.17;;;21.97;;
44304;SDS011;30019;50.576;8.568;2023-06-10T17:35:46;25.67;;;23.77;;
44304;SDS011;30019;50.576;8.568;2023-06-10T17:38:12;30.73;;;28.00;;
44304;SDS011;30019;50.576;8.568;2023-06-10T17:40:38;23.50;;;21.80;;
44304;SDS011;30019;50.576;8.568;2023-06-10T17:43:04;27.02;;;25.02;;
44304;SDS011;30019;50.576;8.568;2023-06-10T17:45:30;26.45;;;24.20;;
44304;SDS011;30019;50.576;8.568;2023-06-10T17:50:21;23.40;;;21.67;;
44304;SDS011;30019;50.576;8.568;2023-06-10T17:52:49;27.10;;;25.15;;
44304;SDS011;30019;50.576;8.568;2023-06-10T17:55:15;33.15;;;30.25;;
44304;SDS011;30019;50.576;8.568;2023-06-10T17:57:40;37.00;;;34.50;;
44304;SDS011;30019;50.576;8.568;2023-06-10T18:00:06;48.43;;;45.27;;
44304;SDS011;30019;50.576;8.568;2023-06-10T18:02:32;26.87;;;24.98;;
44304;SDS011;30019;50.576;8.568;2023-06-10T18:04:58;24.20;;;22.50;;
44304;SDS011;30019;50.576;8.568;2023-06-10T18:07:23;26.45;;;24.02;;
44304;SDS011;30019;50.576;8.568;2023-06-10T18:09:49;28.60;;;26.52;;
44304;SDS011;30019;50.576;8.568;2023-06-10T18:12:14;29.87;;;27.60;;
44304;SDS011;30019;50.576;8.568;2023-06-10T18:14:40;28.90;;;26.75;;
44304;SDS011;30019;50.576;8.568;2023-06-10T18:17:06;24.30;;;22.48;;
44304;SDS011;30019;50.576;8.568;2023-06-10T18:19:31;36.15;;;33.08;;
44304;SDS011;30019;50.576;8.568;2023-06-10T18:21:57;32.92;;;30.62;;
44304;SDS011;30019;50.576;8.568;2023-06-10T18:24:22;32.78;;;30.58;;
44304;SDS011;30019;50.576;8.568;2023-06-10T18:26:48;32.58;;;30.50;;